createdAt,value
2018-08-30T00:02:26.430Z,100895.59
2018-08-30T00:04:55.090Z,100941.47
2018-08-30T00:07:23.996Z,100942.52
2018-08-30T00:09:52.602Z,100949.69
2018-08-30T00:12:21.623Z,100949.69
2018-08-30T00:14:50.230Z,100948.36
2018-08-30T00:17:19.109Z,100950.63
2018-08-30T00:19:47.702Z,100957.08
2018-08-30T00:22:16.390Z,100952.36
2018-08-30T00:24:44.981Z,100949.69
2018-08-30T00:27:13.690Z,100953.08
2018-08-30T00:29:42.600Z,100953.47
2018-08-30T00:32:11.243Z,100952.14
2018-08-30T00:34:40.470Z,100950.30
2018-08-30T00:37:09.147Z,100946.80
2018-08-30T00:39:37.973Z,100951.74
2018-08-30T00:42:06.686Z,100945.94
2018-08-30T00:44:35.458Z,100947.38
2018-08-30T00:47:04.203Z,100938.50
2018-08-30T00:49:32.969Z,100957.83
2018-08-30T00:52:01.769Z,100953.83
2018-08-30T00:54:30.518Z,100953.83
2018-08-30T00:57:00.182Z,100906.14
2018-08-30T00:59:28.793Z,100953.25
2018-08-30T01:01:57.748Z,100956.16
2018-08-30T01:04:26.382Z,100954.36
2018-08-30T01:06:55.572Z,100954.58
2018-08-30T01:09:24.108Z,100947.91
2018-08-30T01:11:52.642Z,100949.97
2018-08-30T01:14:22.088Z,100890.37
2018-08-30T01:16:50.622Z,100952.63
2018-08-30T01:19:19.766Z,100861.85
2018-08-30T01:21:48.528Z,100957.97
2018-08-30T01:24:17.445Z,100951.69
2018-08-30T01:26:46.130Z,100954.58
2018-08-30T01:29:15.068Z,100955.91
2018-08-30T01:31:43.892Z,100958.19
2018-08-30T01:34:14.170Z,100959.16
2018-08-30T01:36:44.012Z,100954.58
2018-08-30T01:39:13.162Z,100954.58
2018-08-30T01:41:42.829Z,100899.20
2018-08-30T01:44:12.917Z,100953.61
2018-08-30T01:46:41.691Z,100947.91
2018-08-30T01:49:10.754Z,100936.85
2018-08-30T01:51:39.443Z,100947.16
2018-08-30T01:54:09.016Z,100942.41
2018-08-30T01:56:37.642Z,100941.30
2018-08-30T01:59:06.265Z,100947.97
2018-08-30T02:01:34.993Z,100929.25
2018-08-30T02:04:04.015Z,100940.41
2018-08-30T02:06:32.774Z,100941.39
2018-08-30T02:09:01.422Z,100944.27
2018-08-30T02:11:30.451Z,100942.08
2018-08-30T02:13:59.074Z,100937.47
2018-08-30T02:16:27.827Z,100939.74
2018-08-30T02:18:56.514Z,100930.41
2018-08-30T02:21:25.187Z,100928.94
2018-08-30T02:23:53.818Z,100921.91
2018-08-30T02:26:22.475Z,100914.14
2018-08-30T02:28:52.071Z,100877.79
2018-08-30T02:31:21.433Z,100911.16
2018-08-30T02:33:50.974Z,100917.47
2018-08-30T02:36:19.626Z,100916.35
2018-08-30T02:38:48.447Z,100922.05
2018-08-30T02:41:17.236Z,100917.33
2018-08-30T02:43:46.155Z,100914.66
2018-08-30T02:46:14.762Z,100911.82
2018-08-30T02:48:43.423Z,100909.38
2018-08-30T02:51:12.606Z,100910.92
2018-08-30T02:53:41.450Z,100906.20
2018-08-30T02:56:10.178Z,100885.91
2018-08-30T02:58:38.765Z,100901.92
2018-08-30T03:01:07.826Z,100905.67
2018-08-30T03:03:36.425Z,100901.89
2018-08-30T03:06:05.624Z,100893.54
2018-08-30T03:08:34.349Z,100896.31
2018-08-30T03:11:03.407Z,100860.69
2018-08-30T03:13:32.088Z,100878.64
2018-08-30T03:16:01.177Z,100886.20
2018-08-30T03:18:29.718Z,100888.86
2018-08-30T03:20:59.409Z,100896.97
2018-08-30T03:23:28.041Z,100899.62
2018-08-30T03:25:56.706Z,100900.67
2018-08-30T03:28:25.370Z,100895.73
2018-08-30T03:30:54.069Z,100902.51
2018-08-30T03:33:23.027Z,100902.61
2018-08-30T03:35:51.792Z,100890.66
2018-08-30T03:38:20.599Z,100906.43
2018-08-30T03:40:49.204Z,100896.39
2018-08-30T03:43:18.029Z,100900.23
2018-08-30T03:45:46.658Z,100898.51
2018-08-30T03:48:16.065Z,100893.79
2018-08-30T03:50:44.694Z,100893.36
2018-08-30T03:53:13.350Z,100892.14
2018-08-30T03:55:42.242Z,100893.22
2018-08-30T03:58:10.818Z,100895.88
2018-08-30T04:00:39.668Z,100898.54
2018-08-30T04:03:08.201Z,100895.13
2018-08-30T04:05:36.809Z,100894.39
2018-08-30T04:08:05.718Z,100904.08
2018-08-30T04:10:34.366Z,100900.08
2018-08-30T04:13:03.208Z,100894.39
2018-08-30T04:15:31.886Z,100887.34
2018-08-30T04:18:00.652Z,100887.34
2018-08-30T04:20:29.206Z,100887.34
2018-08-30T04:22:58.305Z,100887.34
2018-08-30T04:25:26.930Z,100882.89
2018-08-30T04:27:55.792Z,100887.34
2018-08-30T04:30:24.506Z,100888.20
2018-08-30T04:32:53.138Z,100891.73
2018-08-30T04:35:21.673Z,100894.76
2018-08-30T04:37:50.310Z,100889.33
2018-08-30T04:40:19.080Z,100831.73
2018-08-30T04:42:48.021Z,100891.52
2018-08-30T04:45:17.543Z,100895.88
2018-08-30T04:47:46.155Z,100896.74
2018-08-30T04:50:15.351Z,100810.17
2018-08-30T04:52:44.005Z,100901.20
2018-08-30T04:55:12.878Z,100892.35
2018-08-30T04:57:41.606Z,100892.85
2018-08-30T05:00:10.430Z,100891.42
2018-08-30T05:02:38.994Z,100885.70
2018-08-30T05:05:07.595Z,100896.23
2018-08-30T05:07:36.324Z,100888.54
2018-08-30T05:10:05.340Z,100894.70
2018-08-30T05:12:34.266Z,100897.78
2018-08-30T05:15:03.026Z,100890.16
2018-08-30T05:17:31.992Z,100897.17
2018-08-30T05:20:00.833Z,100898.51
2018-08-30T05:22:29.715Z,100898.91
2018-08-30T05:24:59.323Z,100908.08
2018-08-30T05:27:28.011Z,100909.92
2018-08-30T05:29:58.112Z,100903.26
2018-08-30T05:32:27.617Z,100900.38
2018-08-30T05:34:56.266Z,100912.73
2018-08-30T05:37:30.702Z,100910.82
2018-08-30T05:40:01.288Z,100906.43
2018-08-30T05:42:30.834Z,100893.19
2018-08-30T05:45:00.395Z,100915.72
2018-08-30T05:47:29.086Z,100914.75
2018-08-30T05:50:01.675Z,100914.17
2018-08-30T05:52:30.598Z,100911.65
2018-08-30T05:55:03.270Z,100909.74
2018-08-30T05:57:32.014Z,100918.34
2018-08-30T06:00:01.348Z,100913.66
2018-08-30T06:02:30.414Z,100913.81
2018-08-30T06:04:59.954Z,100914.92
2018-08-30T06:07:32.910Z,100917.37
2018-08-30T06:10:03.470Z,100865.11
2018-08-30T06:12:36.527Z,100898.50
2018-08-30T06:15:12.006Z,100917.38
2018-08-30T06:17:50.716Z,100913.91
2018-08-30T06:20:22.123Z,100920.72
2018-08-30T06:22:51.510Z,100905.83
2018-08-30T06:25:21.061Z,100788.97
2018-08-30T06:27:53.816Z,100901.83
2018-08-30T06:30:23.499Z,100889.95
2018-08-30T06:32:52.182Z,100898.95
2018-08-30T06:35:21.032Z,100900.53
2018-08-30T06:37:49.690Z,100903.47
2018-08-30T06:40:19.120Z,100905.16
2018-08-30T06:42:48.014Z,100905.75
2018-08-30T06:45:16.861Z,100911.14
2018-08-30T06:47:45.686Z,100907.02
2018-08-30T06:50:15.250Z,100908.72
2018-08-30T06:52:44.939Z,100908.72
2018-08-30T06:55:15.021Z,100919.74
2018-08-30T06:57:43.704Z,100915.74
2018-08-30T07:00:13.239Z,100906.80
2018-08-30T07:02:41.894Z,100912.25
2018-08-30T07:05:10.888Z,100904.13
2018-08-30T07:07:41.474Z,100904.48
2018-08-30T07:10:10.248Z,100908.48
2018-08-30T07:12:38.830Z,100912.27
2018-08-30T07:15:07.852Z,100878.59
2018-08-30T07:17:36.500Z,100907.70
2018-08-30T07:20:05.426Z,100919.76
2018-08-30T07:22:35.063Z,100920.75
2018-08-30T07:25:03.751Z,100913.73
2018-08-30T07:27:32.358Z,100911.82
2018-08-30T07:30:01.154Z,100908.17
2018-08-30T07:32:29.655Z,100910.97
2018-08-30T07:34:58.439Z,100903.12
2018-08-30T07:37:27.378Z,100913.34
2018-08-30T07:39:56.167Z,100918.58
2018-08-30T07:42:24.838Z,100917.02
2018-08-30T07:44:53.580Z,100924.89
2018-08-30T07:47:22.834Z,100927.69
2018-08-30T07:49:51.430Z,100929.02
2018-08-30T07:52:20.711Z,100934.72
2018-08-30T07:54:50.123Z,100929.15
2018-08-30T07:57:19.165Z,100935.23
2018-08-30T07:59:47.767Z,100930.49
2018-08-30T08:02:16.466Z,100932.46
2018-08-30T08:04:45.373Z,100933.91
2018-08-30T08:07:15.199Z,100927.01
2018-08-30T08:09:43.975Z,100934.20
2018-08-30T08:12:12.813Z,100930.31
2018-08-30T08:14:41.760Z,100936.99
2018-08-30T08:17:10.246Z,100930.47
2018-08-30T08:19:39.520Z,100935.58
2018-08-30T08:22:09.038Z,100930.00
2018-08-30T08:24:38.042Z,100933.14
2018-08-30T08:27:06.628Z,100928.55
2018-08-30T08:29:35.549Z,100926.85
2018-08-30T08:32:04.190Z,100924.36
2018-08-30T08:34:32.839Z,100926.91
2018-08-30T08:37:01.402Z,100927.03
2018-08-30T08:39:30.067Z,100923.52
2018-08-30T08:41:58.889Z,100925.71
2018-08-30T08:44:27.374Z,100921.70
2018-08-30T08:46:56.329Z,100816.83
2018-08-30T08:49:24.988Z,100917.33
2018-08-30T08:51:53.675Z,100919.64
2018-08-30T08:54:22.310Z,100920.84
2018-08-30T08:56:50.976Z,100916.47
2018-08-30T08:59:20.322Z,100921.56
2018-08-30T09:01:49.043Z,100920.82
2018-08-30T09:04:17.926Z,100927.61
2018-08-30T09:06:47.322Z,100917.03
2018-08-30T09:09:17.490Z,100918.77
2018-08-30T09:11:46.295Z,100918.64
2018-08-30T09:14:15.266Z,100927.75
2018-08-30T09:16:43.818Z,100925.33
2018-08-30T09:19:12.811Z,100931.50
2018-08-30T09:21:41.582Z,100929.92
2018-08-30T09:24:10.158Z,100931.02
2018-08-30T09:26:38.784Z,100929.20
2018-08-30T09:29:07.377Z,100933.20
2018-08-30T09:31:36.130Z,100930.28
2018-08-30T09:34:05.317Z,100929.05
2018-08-30T09:36:34.103Z,100923.00
2018-08-30T09:39:02.789Z,100927.71
2018-08-30T09:41:31.678Z,100929.66
2018-08-30T09:44:00.398Z,100928.80
2018-08-30T09:46:30.201Z,100925.63
2018-08-30T09:48:58.786Z,100929.49
2018-08-30T09:51:27.643Z,100923.19
2018-08-30T09:53:56.436Z,100924.51
2018-08-30T09:56:25.238Z,100922.66
2018-08-30T09:58:54.662Z,100927.28
2018-08-30T10:01:28.636Z,100924.13
2018-08-30T10:03:57.218Z,100927.12
2018-08-30T10:06:26.531Z,100924.80
2018-08-30T10:08:55.149Z,100924.29
2018-08-30T10:11:24.150Z,100920.84
2018-08-30T10:13:52.732Z,100918.73
2018-08-30T10:16:21.295Z,100919.17
2018-08-30T10:18:49.873Z,100919.55
2018-08-30T10:21:18.568Z,100918.65
2018-08-30T10:23:47.686Z,100914.02
2018-08-30T10:26:16.196Z,100910.99
2018-08-30T10:28:45.789Z,100914.84
2018-08-30T10:31:14.470Z,100921.89
2018-08-30T10:33:43.752Z,100914.75
2018-08-30T10:36:12.374Z,100927.78
2018-08-30T10:38:41.379Z,100918.08
2018-08-30T10:41:10.030Z,100925.78
2018-08-30T10:43:39.542Z,100927.68
2018-08-30T10:46:08.270Z,100929.40
2018-08-30T10:48:36.919Z,100929.40
2018-08-30T10:51:05.822Z,100927.33
2018-08-30T10:53:34.508Z,100931.44
2018-08-30T10:56:03.585Z,100932.77
2018-08-30T10:58:32.392Z,100938.86
2018-08-30T11:01:01.410Z,100875.48
2018-08-30T11:03:30.063Z,100934.84
2018-08-30T11:05:58.924Z,100938.13
2018-08-30T11:08:27.502Z,100936.00
2018-08-30T11:10:56.253Z,100936.59
2018-08-30T11:13:25.090Z,100872.98
2018-08-30T11:15:53.700Z,100935.47
2018-08-30T11:18:24.106Z,100941.98
2018-08-30T11:20:52.699Z,100938.69
2018-08-30T11:23:21.908Z,100941.84
2018-08-30T11:25:50.547Z,100946.81
2018-08-30T11:28:19.796Z,100945.58
2018-08-30T11:30:48.490Z,100944.52
2018-08-30T11:33:18.170Z,100950.70
2018-08-30T11:35:46.894Z,100950.97
2018-08-30T11:38:15.946Z,100945.92
2018-08-30T11:40:44.689Z,100949.14
2018-08-30T11:43:13.383Z,100944.23
2018-08-30T11:45:42.059Z,100943.59
2018-08-30T11:48:10.810Z,100939.56
2018-08-30T11:50:40.178Z,100940.70
2018-08-30T11:53:08.793Z,100938.07
2018-08-30T11:55:37.435Z,100942.52
2018-08-30T11:58:06.066Z,100947.62
2018-08-30T12:00:34.755Z,100939.41
2018-08-30T12:03:03.533Z,100947.67
2018-08-30T12:05:33.140Z,100945.72
2018-08-30T12:08:01.865Z,100950.30
2018-08-30T12:10:31.072Z,100952.09
2018-08-30T12:12:59.729Z,100947.27
2018-08-30T12:15:29.023Z,100950.30
2018-08-30T12:17:57.693Z,100951.74
2018-08-30T12:20:26.368Z,100952.70
2018-08-30T12:22:55.166Z,100910.72
2018-08-30T12:25:23.749Z,100957.02
2018-08-30T12:27:53.120Z,100952.52
2018-08-30T12:30:21.960Z,100961.02
2018-08-30T12:32:50.947Z,100960.30
2018-08-30T12:35:19.878Z,100958.44
2018-08-30T12:37:48.669Z,100963.73
2018-08-30T12:40:18.158Z,100959.52
2018-08-30T12:42:46.796Z,100958.13
2018-08-30T12:45:15.722Z,100952.81
2018-08-30T12:47:44.315Z,100953.95
2018-08-30T12:50:14.874Z,100960.23
2018-08-30T12:52:43.281Z,100968.45
2018-08-30T12:55:12.718Z,100963.57
2018-08-30T12:57:41.374Z,100965.05
2018-08-30T13:00:12.704Z,100961.57
2018-08-30T13:02:41.323Z,100958.44
2018-08-30T13:05:12.133Z,100959.70
2018-08-30T13:07:40.739Z,100955.41
2018-08-30T13:10:09.591Z,100955.34
2018-08-30T13:12:38.639Z,100951.97
2018-08-30T13:15:07.781Z,100950.56
2018-08-30T13:17:36.155Z,100952.25
2018-08-30T13:20:05.313Z,100952.97
2018-08-30T13:22:33.805Z,100953.17
2018-08-30T13:25:03.097Z,100955.66
2018-08-30T13:27:31.696Z,100951.42
2018-08-30T13:30:00.374Z,100962.70
2018-08-30T13:32:29.066Z,100963.98
2018-08-30T13:34:58.699Z,100958.61
2018-08-30T13:37:27.146Z,100957.72
2018-08-30T13:39:56.577Z,100955.20
2018-08-30T13:42:25.300Z,100966.48
2018-08-30T13:44:53.999Z,100962.39
2018-08-30T13:47:23.620Z,100974.97
2018-08-30T13:49:51.905Z,100965.16
2018-08-30T13:52:21.152Z,100973.88
2018-08-30T13:54:49.773Z,100978.84
2018-08-30T13:57:18.565Z,100978.30
2018-08-30T13:59:47.218Z,100979.86
2018-08-30T14:02:15.892Z,100984.02
2018-08-30T14:04:44.525Z,100980.61
2018-08-30T14:07:13.408Z,100982.59
2018-08-30T14:09:42.078Z,100983.48
2018-08-30T14:12:11.049Z,100984.46
2018-08-30T14:14:40.463Z,100930.12
2018-08-30T14:17:08.701Z,100982.31
2018-08-30T14:19:37.758Z,100978.98
2018-08-30T14:22:06.546Z,100979.45
2018-08-30T14:24:35.365Z,100976.03
2018-08-30T14:27:04.019Z,100979.36
2018-08-30T14:29:32.848Z,100984.27
2018-08-30T14:32:01.775Z,100981.80
2018-08-30T14:34:30.493Z,100981.12
2018-08-30T14:36:59.942Z,100987.81
2018-08-30T14:39:28.669Z,100979.09
2018-08-30T14:41:58.377Z,100989.64
2018-08-30T14:44:26.915Z,100991.66
2018-08-30T14:46:55.785Z,100994.81
2018-08-30T14:49:27.238Z,100999.91
2018-08-30T14:51:56.306Z,101008.09
2018-08-30T14:54:25.024Z,101008.22
2018-08-30T14:56:54.091Z,101011.86
2018-08-30T14:59:22.886Z,101008.73
2018-08-30T15:01:52.601Z,101003.73
2018-08-30T15:04:21.930Z,101003.37
2018-08-30T15:06:50.939Z,101005.33
2018-08-30T15:09:19.582Z,100998.33
2018-08-30T15:11:48.698Z,101010.98
2018-08-30T15:14:18.720Z,101008.78
2018-08-30T15:16:48.197Z,101004.25
2018-08-30T15:19:16.682Z,101007.92
2018-08-30T15:21:45.492Z,101007.36
2018-08-30T15:24:14.259Z,101002.95
2018-08-30T15:26:46.426Z,101003.09
2018-08-30T15:29:15.186Z,101005.20
2018-08-30T15:31:44.034Z,101011.64
2018-08-30T15:34:13.362Z,101005.55
2018-08-30T15:36:42.301Z,101012.73
2018-08-30T15:39:11.512Z,101014.67
2018-08-30T15:41:40.520Z,101017.89
2018-08-30T15:44:09.062Z,101015.34
2018-08-30T15:46:37.772Z,101015.79
2018-08-30T15:49:06.970Z,101025.30
2018-08-30T15:51:35.548Z,101019.84
2018-08-30T15:54:04.682Z,101021.78
2018-08-30T15:56:33.270Z,101019.71
2018-08-30T15:59:02.382Z,101013.55
2018-08-30T16:01:31.062Z,101015.02
2018-08-30T16:03:59.755Z,101021.62
2018-08-30T16:06:28.586Z,101019.80
2018-08-30T16:08:57.155Z,101024.80
2018-08-30T16:11:26.267Z,101025.66
2018-08-30T16:13:54.545Z,101021.03
2018-08-30T16:16:23.543Z,101025.41
2018-08-30T16:18:52.214Z,101028.56
2018-08-30T16:21:20.817Z,101026.72
2018-08-30T16:23:50.523Z,101026.87
2018-08-30T16:26:19.224Z,101018.48
2018-08-30T16:28:47.879Z,101025.66
2018-08-30T16:31:16.807Z,101021.06
2018-08-30T16:33:46.063Z,101024.22
2018-08-30T16:36:14.803Z,101027.48
2018-08-30T16:38:44.658Z,101025.54
2018-08-30T16:41:13.417Z,101032.94
2018-08-30T16:43:42.239Z,101032.94
2018-08-30T16:46:11.441Z,101030.73
2018-08-30T16:48:40.359Z,101032.30
2018-08-30T16:51:09.144Z,101037.28
2018-08-30T16:53:37.867Z,101024.75
2018-08-30T16:56:06.626Z,101024.02
2018-08-30T16:58:35.289Z,101032.44
2018-08-30T17:01:03.970Z,101028.03
2018-08-30T17:03:32.578Z,101028.89
2018-08-30T17:06:01.794Z,101031.92
2018-08-30T17:08:30.416Z,101029.50
2018-08-30T17:10:59.426Z,101026.84
2018-08-30T17:13:28.162Z,101036.00
2018-08-30T17:15:57.195Z,101035.01
2018-08-30T17:18:26.500Z,101035.48
2018-08-30T17:20:56.628Z,101034.42
2018-08-30T17:23:25.836Z,101031.89
2018-08-30T17:25:54.567Z,101035.30
2018-08-30T17:28:23.266Z,101033.48
2018-08-30T17:30:51.946Z,101031.64
2018-08-30T17:33:20.653Z,101037.37
2018-08-30T17:35:49.495Z,101038.94
2018-08-30T17:38:18.645Z,100996.31
2018-08-30T17:40:47.303Z,101049.90
2018-08-30T17:43:16.016Z,101051.98
2018-08-30T17:45:44.655Z,101058.67
2018-08-30T17:48:13.245Z,101058.69
2018-08-30T17:50:41.743Z,101056.97
2018-08-30T17:53:10.918Z,101056.39
2018-08-30T17:55:39.669Z,101060.16
2018-08-30T17:58:08.591Z,101050.92
2018-08-30T18:00:37.414Z,101037.76
2018-08-30T18:03:06.219Z,101053.45
2018-08-30T18:05:34.926Z,101054.80
2018-08-30T18:08:04.780Z,101056.97
2018-08-30T18:10:33.679Z,101055.17
2018-08-30T18:13:02.390Z,101056.75
2018-08-30T18:15:31.484Z,101059.90
2018-08-30T18:18:00.235Z,101069.50
2018-08-30T18:20:33.877Z,101070.35
2018-08-30T18:23:02.422Z,101080.70
2018-08-30T18:25:31.527Z,101081.30
2018-08-30T18:28:00.110Z,101081.30
2018-08-30T18:30:28.717Z,101087.84
2018-08-30T18:32:57.326Z,101088.56
2018-08-30T18:35:26.927Z,101096.58
2018-08-30T18:37:56.410Z,101096.82
2018-08-30T18:40:25.076Z,101102.52
2018-08-30T18:42:54.089Z,101097.65
2018-08-30T18:45:22.829Z,101099.84
2018-08-30T18:47:51.762Z,101102.01
2018-08-30T18:50:20.585Z,101104.09
2018-08-30T18:52:49.338Z,101095.91
2018-08-30T18:55:18.094Z,101103.81
2018-08-30T18:57:46.859Z,101102.59
2018-08-30T19:00:16.437Z,101106.36
2018-08-30T19:02:45.342Z,101107.77
2018-08-30T19:05:14.817Z,100993.69
2018-08-30T19:07:43.506Z,101106.54
2018-08-30T19:10:12.700Z,101112.63
2018-08-30T19:12:41.384Z,101107.09
2018-08-30T19:15:15.603Z,101109.04
2018-08-30T19:17:50.167Z,101110.67
2018-08-30T19:20:19.061Z,101110.91
2018-08-30T19:22:47.994Z,101111.77
2018-08-30T19:25:20.812Z,101110.91
2018-08-30T19:27:49.397Z,101105.82
2018-08-30T19:30:23.480Z,101113.08
2018-08-30T19:32:52.106Z,101106.05
2018-08-30T19:35:26.789Z,101063.14
2018-08-30T19:37:56.434Z,101111.86
2018-08-30T19:40:30.314Z,101109.30
2018-08-30T19:43:00.024Z,101109.17
2018-08-30T19:45:31.122Z,101108.42
2018-08-30T19:48:00.082Z,101111.55
2018-08-30T19:50:29.934Z,101116.89
2018-08-30T19:52:58.811Z,101111.66
2018-08-30T19:55:28.356Z,101071.69
2018-08-30T19:57:57.183Z,101108.08
2018-08-30T20:00:26.143Z,101059.28
2018-08-30T20:02:54.736Z,101107.44
2018-08-30T20:05:23.648Z,101116.09
2018-08-30T20:07:52.397Z,101132.11
2018-08-30T20:10:21.919Z,101124.55
2018-08-30T20:12:50.689Z,101128.16
2018-08-30T20:15:19.446Z,101126.46
2018-08-30T20:17:48.024Z,101121.06
2018-08-30T20:20:16.758Z,101133.22
2018-08-30T20:22:45.736Z,101136.11
2018-08-30T20:25:14.423Z,101136.11
2018-08-30T20:27:43.371Z,101131.74
2018-08-30T20:30:12.025Z,101138.99
2018-08-30T20:32:40.658Z,101138.02
2018-08-30T20:35:09.592Z,101139.97
2018-08-30T20:37:38.514Z,101148.34
2018-08-30T20:40:07.230Z,101112.73
2018-08-30T20:42:35.999Z,101144.63
2018-08-30T20:45:04.726Z,101147.30
2018-08-30T20:47:33.398Z,101147.30
2018-08-30T20:50:02.259Z,101148.09
2018-08-30T20:52:31.099Z,101145.75
2018-08-30T20:54:59.934Z,101144.52
2018-08-30T20:57:28.700Z,101153.11
2018-08-30T20:59:57.506Z,101145.92
2018-08-30T21:02:26.699Z,101123.44
2018-08-30T21:04:55.277Z,101150.11
2018-08-30T21:07:24.119Z,101150.33
2018-08-30T21:09:52.830Z,101154.69
2018-08-30T21:12:21.762Z,101086.91
2018-08-30T21:14:50.484Z,101153.94
2018-08-30T21:17:19.580Z,101152.23
2018-08-30T21:19:48.320Z,101149.94
2018-08-30T21:22:16.974Z,101150.55
2018-08-30T21:24:45.942Z,101147.73
2018-08-30T21:27:14.755Z,101144.66
2018-08-30T21:29:43.350Z,101147.12
2018-08-30T21:32:12.219Z,101143.73
2018-08-30T21:34:40.990Z,101149.27
2018-08-30T21:37:09.575Z,101146.83
2018-08-30T21:39:38.465Z,101146.17
2018-08-30T21:42:07.138Z,101152.73
2018-08-30T21:44:36.050Z,101152.94
2018-08-30T21:47:04.873Z,101153.62
2018-08-30T21:49:34.046Z,101157.27
2018-08-30T21:52:02.713Z,101157.36
2018-08-30T21:54:31.791Z,101152.03
2018-08-30T21:57:00.590Z,101153.11
2018-08-30T21:59:29.227Z,101154.16
2018-08-30T22:01:57.990Z,101157.22
2018-08-30T22:04:27.495Z,101159.48
2018-08-30T22:06:56.298Z,101067.34
2018-08-30T22:09:25.040Z,101161.22
2018-08-30T22:11:54.410Z,101157.89
2018-08-30T22:14:24.177Z,101158.00
2018-08-30T22:16:53.198Z,101104.17
2018-08-30T22:19:22.034Z,101159.91
2018-08-30T22:21:50.926Z,101154.57
2018-08-30T22:24:19.588Z,101157.84
2018-08-30T22:26:48.634Z,101156.52
2018-08-30T22:29:17.642Z,101162.31
2018-08-30T22:31:46.817Z,101165.66
2018-08-30T22:34:15.354Z,101166.84
2018-08-30T22:36:43.989Z,101161.50
2018-08-30T22:39:12.546Z,101159.41
2018-08-30T22:41:41.106Z,101161.05
2018-08-30T22:44:10.126Z,101165.55
2018-08-30T22:46:38.658Z,101162.33
2018-08-30T22:49:07.795Z,101167.19
2018-08-30T22:51:36.450Z,101162.83
2018-08-30T22:54:05.582Z,101158.94
2018-08-30T22:56:34.720Z,101163.41
2018-08-30T22:59:03.489Z,101158.55
2018-08-30T23:01:32.494Z,101162.75
2018-08-30T23:04:01.079Z,101159.72
2018-08-30T23:06:30.163Z,101161.62
2018-08-30T23:08:58.766Z,101156.69
2018-08-30T23:11:28.010Z,101114.94
2018-08-30T23:13:56.798Z,101150.44
2018-08-30T23:16:27.005Z,101158.80
2018-08-30T23:18:55.585Z,101152.13
2018-08-30T23:21:24.697Z,101159.00
2018-08-30T23:23:53.484Z,101167.56
2018-08-30T23:26:22.455Z,101169.30
2018-08-30T23:28:51.066Z,101168.89
2018-08-30T23:31:19.854Z,101164.17
2018-08-30T23:33:48.522Z,101162.94
2018-08-30T23:36:17.863Z,101159.41
2018-08-30T23:38:46.642Z,101163.97
2018-08-30T23:41:15.469Z,101165.70
2018-08-30T23:43:44.235Z,101156.74
2018-08-30T23:46:12.862Z,101155.05
2018-08-30T23:48:41.916Z,101162.08
2018-08-30T23:51:10.582Z,101157.31
2018-08-30T23:53:39.638Z,101109.14
2018-08-30T23:56:08.448Z,101161.91
2018-08-30T23:58:48.255Z,101156.95
